^^
Meteo Knjazevac Station Historical Data
Daily Summary for April 22, 2021 Units:  Metric    English   Both
Daily Weekly Monthly Yearly Custom
  High: Low: Average:
Temperature: 17 °C 2.6 °C 9.8 °C
Dew Point: 10.6 °C 1.3 °C 7.1 °C
Humidity: 99% 65% 84%
Wind Speed: 12.9km/h 0km/h 3.4km/h
Wind Gust: 20.9km/h - -
Wind- - SSW
Pressure: 1018.5 hPa 1015.1 hPa -
Precipitation: 2.03 mm    
Historical Graphs
 
 
Tabular Data for April 22, 2021
Time Temperature Dew Point Pressure Wind Wind Speed Wind Gust Humidity Rainfall Rate (Hourly) solar Conditions
00:00 5.6 °C 3.1 °C 1015.8 hPa NNE 1.6 km/h 4.8 km/h 84% 0 mm 0 W/m2
00:10 5.3 °C 2.8 °C 1015.8 hPa North 1.6 km/h 3.2 km/h 84% 0 mm 0 W/m2
00:20 5.1 °C 2.7 °C 1015.8 hPa Calm   4.8 km/h 84% 0 mm 0 W/m2
00:30 4.7 °C 2.3 °C 1015.8 hPa WNW 1.6 km/h 4.8 km/h 84% 0 mm 0 W/m2
00:40 4.4 °C 2.1 °C 1015.8 hPa WNW 1.6 km/h 6.4 km/h 85% 0 mm 0 W/m2
00:50 4.4 °C 2.4 °C 1015.8 hPa NNW 1.6 km/h 4.8 km/h 87% 0 mm 0 W/m2
01:00 4.3 °C 2.2 °C 1015.8 hPa WNW 3.2 km/h 4.8 km/h 86% 0 mm 0 W/m2
01:10 4 °C 2.1 °C 1015.8 hPa West 3.2 km/h 8 km/h 87% 0 mm 0 W/m2
01:20 4 °C 2.2 °C 1015.8 hPa WNW 1.6 km/h 8 km/h 88% 0 mm 0 W/m2
01:30 3.9 °C 2.1 °C 1015.8 hPa NNW 1.6 km/h 4.8 km/h 88% 0 mm 0 W/m2
01:40 3.8 °C 2 °C 1015.8 hPa Calm   4.8 km/h 88% 0 mm 0 W/m2
01:50 3.7 °C 2.1 °C 1016.1 hPa Calm   4.8 km/h 89% 0 mm 0 W/m2
02:00 3.5 °C 1.7 °C 1016.1 hPa North 1.6 km/h 4.8 km/h 88% 0 mm 0 W/m2
02:10 3.2 °C 1.6 °C 1016.1 hPa WNW 4.8 km/h 6.4 km/h 89% 0 mm 0 W/m2
02:20 3.1 °C 1.6 °C 1016.1 hPa NW 1.6 km/h 4.8 km/h 90% 0 mm 0 W/m2
02:30 3.1 °C 1.6 °C 1016.1 hPa NW 3.2 km/h 4.8 km/h 90% 0 mm 0 W/m2
02:40 3.1 °C 1.6 °C 1016.1 hPa NNW 1.6 km/h 8 km/h 90% 0 mm 0 W/m2
02:50 3 °C 1.5 °C 1015.8 hPa Calm   6.4 km/h 90% 0 mm 0 W/m2
03:00 2.9 °C 1.4 °C 1015.8 hPa WNW 1.6 km/h 4.8 km/h 90% 0 mm 0 W/m2
03:10 2.9 °C 1.7 °C 1015.8 hPa West 3.2 km/h 8 km/h 92% 0 mm 0 W/m2
03:20 3.1 °C 2.1 °C 1015.8 hPa WNW 3.2 km/h 4.8 km/h 93% 0 mm 0 W/m2
03:30 3.2 °C 2.2 °C 1015.8 hPa West 3.2 km/h 6.4 km/h 93% 0 mm 0 W/m2
03:40 3.3 °C 2.3 °C 1015.8 hPa West 3.2 km/h 6.4 km/h 93% 0 mm 0 W/m2
03:50 3.3 °C 2.3 °C 1015.8 hPa West 3.2 km/h 6.4 km/h 93% 0 mm 0 W/m2
04:00 3.5 °C 2.5 °C 1015.8 hPa West 3.2 km/h 6.4 km/h 93% 0 mm 0 W/m2
04:10 3.5 °C 2.2 °C 1015.8 hPa Calm   3.2 km/h 91% 0 mm 0 W/m2
04:20 3.5 °C 2.3 °C 1015.8 hPa NNE 3.2 km/h 8 km/h 92% 0 mm 0 W/m2
04:30 3.5 °C 2.2 °C 1015.8 hPa Calm   4.8 km/h 91% 0 mm 0 W/m2
04:40 3.5 °C 2.5 °C 1015.8 hPa Calm   3.2 km/h 93% 0 mm 0 W/m2
04:50 3.8 °C 2.9 °C 1015.8 hPa NNE 3.2 km/h 6.4 km/h 94% 0 mm 0 W/m2
05:00 3.9 °C 2.9 °C 1016.1 hPa NNE 1.6 km/h 4.8 km/h 93% 0 mm 0 W/m2
05:10 3.9 °C 2.9 °C 1016.1 hPa Calm   4.8 km/h 93% 0 mm 0 W/m2
05:20 3.9 °C 2.9 °C 1016.1 hPa NNE 3.2 km/h 6.4 km/h 93% 0 mm 0 W/m2
05:30 3.5 °C 2 °C 1016.1 hPa NNW 3.2 km/h 6.4 km/h 90% 0 mm 0 W/m2
05:40 3.3 °C 1.8 °C 1016.1 hPa North 1.6 km/h 8 km/h 90% 0 mm 0 W/m2
05:50 3.2 °C 1.9 °C 1016.1 hPa North 3.2 km/h 4.8 km/h 91% 0 mm 0 W/m2
06:00 3.2 °C 2.2 °C 1016.1 hPa NNE 1.6 km/h 6.4 km/h 93% 0 mm 0 W/m2
06:10 3.2 °C 2.2 °C 1016.1 hPa Calm   3.2 km/h 93% 0 mm 0 W/m2
06:20 3.2 °C 2 °C 1016.1 hPa NW 1.6 km/h 3.2 km/h 92% 0 mm 0 W/m2
06:30 3 °C 1.7 °C 1016.1 hPa NW 1.6 km/h 3.2 km/h 91% 0 mm 0 W/m2
06:40 2.8 °C 1.5 °C 1016.5 hPa WNW 1.6 km/h 4.8 km/h 91% 0 mm 7 W/m2
06:50 2.6 °C 1.3 °C 1016.5 hPa Calm   4.8 km/h 91% 0 mm 9 W/m2
07:00 2.8 °C 1.9 °C 1016.5 hPa Calm   6.4 km/h 94% 0 mm 25 W/m2
07:10 2.9 °C 2.1 °C 1016.5 hPa NW 1.6 km/h 4.8 km/h 94% 0 mm 41 W/m2
07:20 3 °C 2.3 °C 1016.5 hPa Calm   4.8 km/h 95% 0 mm 56 W/m2
07:30 3.7 °C 3.1 °C 1016.5 hPa SSE 1.6 km/h 6.4 km/h 96% 0 mm 77 W/m2
07:40 4.2 °C 3.4 °C 1016.5 hPa NW 1.6 km/h 4.8 km/h 95% 0 mm 100 W/m2
07:50 4.9 °C 4.2 °C 1016.5 hPa West 3.2 km/h 6.4 km/h 95% 0 mm 122 W/m2
08:00 5.6 °C 4.6 °C 1016.5 hPa West 1.6 km/h 4.8 km/h 93% 0 mm 142 W/m2
08:10 6.3 °C 5.2 °C 1016.5 hPa Calm   3.2 km/h 93% 0 mm 158 W/m2
08:20 7 °C 5.6 °C 1016.5 hPa Calm   3.2 km/h 91% 0 mm 138 W/m2
08:30 7.4 °C 5.7 °C 1016.5 hPa Calm   3.2 km/h 89% 0 mm 163 W/m2
08:40 8 °C 6.3 °C 1016.5 hPa NNW 1.6 km/h 4.8 km/h 89% 0 mm 224 W/m2
08:50 8.7 °C 6.4 °C 1016.5 hPa SE 3.2 km/h 8 km/h 86% 0 mm 226 W/m2
09:00 9.6 °C 7 °C 1016.5 hPa SE 1.6 km/h 14.5 km/h 84% 0 mm 261 W/m2
09:10 10.3 °C 7.5 °C 1016.5 hPa East 4.8 km/h 9.7 km/h 83% 0 mm 278 W/m2
09:20 11.1 °C 7.8 °C 1016.5 hPa ENE 3.2 km/h 9.7 km/h 80% 0 mm 294 W/m2
09:30 11.8 °C 8.1 °C 1016.5 hPa NNE 3.2 km/h 8 km/h 78% 0 mm 229 W/m2
09:40 12.3 °C 8.4 °C 1016.1 hPa NNE 3.2 km/h 6.4 km/h 77% 0 mm 227 W/m2
09:50 12.7 °C 8.3 °C 1016.1 hPa NNE 8 km/h 9.7 km/h 75% 0 mm 202 W/m2
10:00 13 °C 8.7 °C 1016.1 hPa NE 3.2 km/h 9.7 km/h 75% 0 mm 233 W/m2
10:10 13.3 °C 8.8 °C 1016.1 hPa NE 1.6 km/h 4.8 km/h 74% 0 mm 216 W/m2
10:20 13.7 °C 9.1 °C 1016.1 hPa NNE 1.6 km/h 4.8 km/h 74% 0 mm 217 W/m2
10:30 14 °C 9.4 °C 1016.1 hPa Calm   1.6 km/h 74% 0 mm 193 W/m2
10:40 14.3 °C 9.5 °C 1015.8 hPa SW 3.2 km/h 4.8 km/h 73% 0 mm 231 W/m2
10:50 14.6 °C 9.8 °C 1015.8 hPa WSW 1.6 km/h 9.7 km/h 73% 0 mm 210 W/m2
11:00 14.9 °C 9.9 °C 1015.8 hPa SW 4.8 km/h 8 km/h 72% 0 mm 242 W/m2
11:10 15.3 °C 9.8 °C 1015.8 hPa SW 8 km/h 9.7 km/h 70% 0 mm 276 W/m2
11:20 15.6 °C 9.9 °C 1015.8 hPa SW 9.7 km/h 12.9 km/h 69% 0 mm 328 W/m2
11:30 15.9 °C 10 °C 1015.8 hPa WSW 9.7 km/h 14.5 km/h 68% 0 mm 259 W/m2
11:40 15.9 °C 10 °C 1015.8 hPa SW 12.9 km/h 17.7 km/h 68% 0 mm 218 W/m2
11:50 15.8 °C 9.9 °C 1015.8 hPa SW 11.3 km/h 20.9 km/h 68% 0 mm 213 W/m2
12:00 15.7 °C 9.8 °C 1015.8 hPa SW 12.9 km/h 20.9 km/h 68% 0 mm 215 W/m2
12:10 15.7 °C 9.8 °C 1015.8 hPa SW 11.3 km/h 20.9 km/h 68% 0 mm 200 W/m2
12:20 15.7 °C 9.8 °C 1015.8 hPa SW 11.3 km/h 19.3 km/h 68% 0 mm 163 W/m2
12:30 15.7 °C 9.8 °C 1015.5 hPa SW 8 km/h 14.5 km/h 68% 0 mm 241 W/m2
12:40 16 °C 10.1 °C 1015.5 hPa WSW 8 km/h 14.5 km/h 68% 0 mm 198 W/m2
12:50 16.1 °C 9.9 °C 1015.5 hPa WSW 9.7 km/h 14.5 km/h 67% 0 mm 165 W/m2
13:00 16.1 °C 10.2 °C 1015.5 hPa WSW 8 km/h 11.3 km/h 68% 0 mm 178 W/m2
13:10 16.2 °C 10.3 °C 1015.5 hPa WSW 4.8 km/h 11.3 km/h 68% 0 mm 168 W/m2
13:20 16.4 °C 10.4 °C 1015.5 hPa WSW 8 km/h 12.9 km/h 68% 0 mm 172 W/m2
13:30 16.5 °C 10.6 °C 1015.5 hPa SW 4.8 km/h 11.3 km/h 68% 0 mm 187 W/m2
13:40 16.6 °C 10.4 °C 1015.5 hPa SW 4.8 km/h 9.7 km/h 67% 0 mm 194 W/m2
13:50 16.8 °C 10.6 °C 1015.1 hPa SW 4.8 km/h 9.7 km/h 67% 0 mm 223 W/m2
14:00 16.9 °C 10.3 °C 1015.1 hPa WSW 4.8 km/h 11.3 km/h 65% 0 mm 162 W/m2
14:10 17 °C 10.4 °C 1015.1 hPa WSW 8 km/h 12.9 km/h 65% 0 mm 139 W/m2
14:20 16.9 °C 10.3 °C 1015.1 hPa WSW 8 km/h 12.9 km/h 65% 0 mm 108 W/m2
14:30 16.8 °C 10.2 °C 1015.5 hPa SW 8 km/h 12.9 km/h 65% 0 mm 96 W/m2
14:40 16.6 °C 10 °C 1015.1 hPa SW 4.8 km/h 11.3 km/h 65% 0 mm 80 W/m2
14:50 16.5 °C 9.9 °C 1015.5 hPa SW 9.7 km/h 12.9 km/h 65% 0 mm 67 W/m2
15:00 16.4 °C 10.3 °C 1015.5 hPa SW 8 km/h 12.9 km/h 67% 0 mm 64 W/m2
15:10 16.3 °C 10.2 °C 1015.5 hPa SW 8 km/h 11.3 km/h 67% 0 mm 46 W/m2
15:20 16.2 °C 10.1 °C 1015.5 hPa SW 8 km/h 11.3 km/h 67% 0 mm 26 W/m2
15:30 16 °C 9.9 °C 1015.5 hPa SW 8 km/h 11.3 km/h 67% 0 mm 14 W/m2
15:40 15.9 °C 9.8 °C 1015.5 hPa SW 9.7 km/h 14.5 km/h 67% 0 mm 7 W/m2
15:50 15.8 °C 9.7 °C 1015.5 hPa SW 8 km/h 12.9 km/h 67% 0 mm 2 W/m2
16:00 15.6 °C 9.5 °C 1015.5 hPa SW 9.7 km/h 12.9 km/h 67% 0 mm 1 W/m2
16:10 15.3 °C 9.7 °C 1015.8 hPa SW 8 km/h 19.3 km/h 69% 0 mm 0 W/m2
16:20 15 °C 10.2 °C 1015.8 hPa SSW 4.8 km/h 11.3 km/h 73% 0 mm 0 W/m2
16:30 14.6 °C 10.6 °C 1015.8 hPa South 3.2 km/h 8 km/h 77% 0 mm 0 W/m2
16:40 14.2 °C 10.4 °C 1015.8 hPa South 4.8 km/h 11.3 km/h 78% 0 mm 0 W/m2
16:50 13.9 °C 10.1 °C 1015.8 hPa SSW 4.8 km/h 9.7 km/h 78% 0 mm 0 W/m2
17:00 13.8 °C 9.8 °C 1015.8 hPa SW 8 km/h 11.3 km/h 77% 0 mm 0 W/m2
17:10 13.6 °C 9.7 °C 1016.1 hPa SW 4.8 km/h 9.7 km/h 77% 0 mm 0 W/m2
17:20 13.6 °C 9.7 °C 1016.1 hPa SSW 3.2 km/h 6.4 km/h 77% 0 mm 0 W/m2
17:30 13.6 °C 9.7 °C 1016.1 hPa SSW 3.2 km/h 8 km/h 77% 0 mm 0 W/m2
17:40 13.5 °C 9.7 °C 1016.1 hPa Calm   4.8 km/h 78% 0 mm 0 W/m2
17:50 13.2 °C 9.8 °C 1016.5 hPa WNW 3.2 km/h 6.4 km/h 80% 0 mm 0 W/m2
18:00 13.1 °C 9.9 °C 1016.5 hPa WSW 3.2 km/h 8 km/h 81% 0 mm 0 W/m2
18:10 12.7 °C 10.2 °C 1016.8 hPa West 3.2 km/h 6.4 km/h 85% 0.25 mm 0 W/m2
18:20 12.5 °C 10.6 °C 1016.8 hPa WSW 3.2 km/h 8 km/h 88% 0.25 mm 0 W/m2
18:30 12.3 °C 10.4 °C 1016.8 hPa Calm   6.4 km/h 88% 0.25 mm 0 W/m2
18:40 12.1 °C 10.3 °C 1017.2 hPa WNW 1.6 km/h 3.2 km/h 89% 0.25 mm 0 W/m2
18:50 11.9 °C 10.3 °C 1017.2 hPa West 1.6 km/h 8 km/h 90% 0.25 mm 0 W/m2
19:00 11.8 °C 10.2 °C 1017.2 hPa SW 3.2 km/h 4.8 km/h 90% 0 mm 0 W/m2
19:10 11.6 °C 10.2 °C 1017.2 hPa West 1.6 km/h 3.2 km/h 91% 0 mm 0 W/m2
19:20 11.5 °C 10.1 °C 1017.2 hPa West 1.6 km/h 4.8 km/h 91% 0 mm 0 W/m2
19:30 11.3 °C 10.2 °C 1017.2 hPa SW 1.6 km/h 8 km/h 93% 0 mm 0 W/m2
19:50 11.1 °C 10.2 °C 1017.2 hPa NNE 1.6 km/h 6.4 km/h 94% 0 mm 0 W/m2
20:00 10.9 °C 10.1 °C 1017.5 hPa Calm   4.8 km/h 95% 0 mm 0 W/m2
20:10 10.9 °C 10.1 °C 1017.5 hPa SSE 1.6 km/h 4.8 km/h 95% 0 mm 0 W/m2
20:20 10.8 °C 10.2 °C 1017.5 hPa ESE 1.6 km/h 4.8 km/h 96% 0.25 mm 0 W/m2
20:30 10.8 °C 10.2 °C 1017.5 hPa Calm   3.2 km/h 96% 0 mm 0 W/m2
20:40 10.7 °C 10.1 °C 1017.8 hPa NNE 3.2 km/h 4.8 km/h 96% 0 mm 0 W/m2
20:50 10.7 °C 10.1 °C 1017.8 hPa Calm   9.7 km/h 96% 0 mm 0 W/m2
21:00 10.7 °C 10.4 °C 1017.8 hPa NE 1.6 km/h 8 km/h 98% 0 mm 0 W/m2
21:10 10.6 °C 10.3 °C 1017.8 hPa Calm   3.2 km/h 98% 0 mm 0 W/m2
21:20 10.6 °C 10.3 °C 1017.8 hPa Calm   3.2 km/h 98% 0 mm 0 W/m2
21:30 10.6 °C 10.3 °C 1017.8 hPa NE 1.6 km/h 3.2 km/h 98% 0 mm 0 W/m2
21:40 10.6 °C 10.3 °C 1017.8 hPa ENE 1.6 km/h 6.4 km/h 98% 0 mm 0 W/m2
21:50 10.6 °C 10.3 °C 1017.8 hPa ENE 4.8 km/h 8 km/h 98% 0 mm 0 W/m2
22:00 10.6 °C 10.3 °C 1017.8 hPa Calm   6.4 km/h 98% 0 mm 0 W/m2
22:10 10.5 °C 10.2 °C 1017.8 hPa Calm   3.2 km/h 98% 0 mm 0 W/m2
22:20 10.4 °C 10.1 °C 1017.8 hPa NW 3.2 km/h 4.8 km/h 98% 0 mm 0 W/m2
22:30 10.3 °C 10.2 °C 1018.2 hPa NW 1.6 km/h 3.2 km/h 99% 0 mm 0 W/m2
22:40 10.3 °C 10.2 °C 1018.2 hPa West 1.6 km/h 4.8 km/h 99% 0 mm 0 W/m2
22:50 10.3 °C 10.2 °C 1018.2 hPa WNW 1.6 km/h 3.2 km/h 99% 0 mm 0 W/m2
23:00 10.2 °C 10.1 °C 1018.2 hPa Calm   3.2 km/h 99% 0 mm 0 W/m2
23:10 10.2 °C 10.1 °C 1018.2 hPa Calm   3.2 km/h 99% 0 mm 0 W/m2
23:20 10.1 °C 9.9 °C 1018.5 hPa Calm   1.6 km/h 99% 0 mm 0 W/m2
23:30 10.1 °C 9.9 °C 1018.5 hPa Calm   1.6 km/h 99% 0 mm 0 W/m2
23:40 10.1 °C 9.9 °C 1018.5 hPa Calm     99% 0 mm 0 W/m2
23:50 10.1 °C 9.9 °C 1018.5 hPa Calm     99% 0 mm 0 W/m2
Knjazevac, Serbia
Compliments of Weather Underground - 2 mb